Time;durP1;ratioP1;P1;durP2;ratioP2;P2;SDS_P1;SDS_P2;PMS_P1;PMS_P2;Temp;Humidity;BMP_temperature;BMP_pressure;BME280_temperature;BME280_humidity;BME280_pressure;Samples;Min_cycle;Max_cycle;Signal;HPM_P1;HPM_P2
2022/09/10 00:01:38;;;;;;;588.47;536.67;;;14.60;99.90;;;14.56;100.00;100446.53;5065670;28;20232;-66
2022/09/10 00:04:13;;;;;;;579.50;528.45;;;14.60;99.90;;;14.57;100.00;100453.63;5101158;28;20220;-66
2022/09/10 00:06:43;;;;;;;580.38;528.65;;;14.50;99.90;;;14.57;100.00;100442.09;5074810;28;20204;-65
2022/09/10 00:09:12;;;;;;;579.10;527.33;;;14.50;99.90;;;14.56;100.00;100435.00;5070972;28;20203;-66
2022/09/10 00:11:41;;;;;;;570.75;519.97;;;14.60;99.90;;;14.57;100.00;100439.44;5093519;28;20228;-66
2022/09/10 00:14:16;;;;;;;574.75;523.22;;;14.50;99.90;;;14.54;100.00;100428.81;5089494;28;20207;-66
2022/09/10 00:16:43;;;;;;;575.78;525.50;;;13.90;99.90;;;14.49;100.00;100428.84;5103401;28;20226;-65
2022/09/10 00:19:13;;;;;;;574.30;523.15;;;14.50;99.90;;;14.51;100.00;100429.72;5090444;28;20196;-66
2022/09/10 00:21:43;;;;;;;627.88;575.10;;;14.50;99.90;;;14.45;100.00;100431.53;5069196;28;20224;-65
2022/09/10 00:24:11;;;;;;;561.45;511.17;;;14.50;99.90;;;14.44;100.00;100433.31;5098921;28;20209;-65
2022/09/10 00:26:39;;;;;;;580.50;529.45;;;14.40;99.90;;;14.41;100.00;100428.88;5066309;28;20213;-66
2022/09/10 00:29:10;;;;;;;570.47;519.60;;;14.40;99.90;;;14.38;100.00;100442.19;5099087;27;20232;-65
2022/09/10 00:31:38;;;;;;;558.78;508.77;;;14.40;99.90;;;14.41;100.00;100442.16;5051044;28;20229;-65
2022/09/10 00:34:07;;;;;;;561.90;511.35;;;14.40;99.90;;;14.41;100.00;100444.81;5094235;27;20223;-65
2022/09/10 00:36:39;;;;;;;567.83;516.08;;;14.40;99.90;;;14.40;100.00;100443.06;5077440;27;20207;-65
2022/09/10 00:39:14;;;;;;;563.50;512.42;;;14.40;99.90;;;14.44;100.00;100449.28;5077826;27;20204;-65
2022/09/10 00:41:45;;;;;;;556.67;506.33;;;14.40;99.90;;;14.41;100.00;100457.25;5092368;27;20220;-66
2022/09/10 00:44:42;;;;;;;564.38;513.67;;;14.40;99.90;;;14.44;100.00;100456.38;5084379;28;20200;-66
2022/09/10 00:47:27;;;;;;;560.63;509.30;;;14.40;99.90;;;14.44;100.00;100457.25;5099580;27;20195;-65
2022/09/10 00:50:24;;;;;;;563.42;511.70;;;14.40;99.90;;;14.40;100.00;100452.81;5077185;27;20214;-66
2022/09/10 00:52:56;;;;;;;556.85;505.67;;;14.40;99.90;;;14.41;100.00;100459.91;5099718;28;20227;-65
2022/09/10 00:55:24;;;;;;;552.35;502.10;;;14.40;99.90;;;14.39;100.00;100459.91;5074046;27;20200;-65
2022/09/10 00:57:56;;;;;;;556.80;506.77;;;15.00;99.90;;;14.37;100.00;100472.34;5099650;27;20223;-65
2022/09/10 01:00:24;;;;;;;543.58;493.25;;;14.40;99.90;;;14.39;100.00;100473.22;5124176;27;20201;-66
2022/09/10 01:02:53;;;;;;;554.90;504.45;;;14.40;99.90;;;14.36;100.00;100483.88;5091356;27;20225;-66
2022/09/10 01:05:24;;;;;;;558.53;507.98;;;14.40;99.90;;;14.36;100.00;100475.91;5073111;28;20193;-66
2022/09/10 01:07:52;;;;;;;552.72;502.25;;;14.40;99.90;;;14.38;100.00;100482.09;5079551;27;20217;-65
2022/09/10 01:10:27;;;;;;;548.08;497.55;;;14.30;99.90;;;14.36;100.00;100480.34;5078267;28;20203;-65
2022/09/10 01:13:15;;;;;;;545.70;496.13;;;14.30;99.90;;;14.39;100.00;100486.53;5088488;27;20246;-65
2022/09/10 01:15:59;;;;;;;550.75;500.13;;;14.40;99.90;;;14.35;100.00;100482.09;5107324;27;20223;-66
2022/09/10 01:19:17;;;;;;;547.85;496.58;;;14.30;99.90;;;14.36;100.00;100502.50;5098793;27;20212;-66
2022/09/10 01:21:58;;;;;;;544.42;494.05;;;14.40;99.90;;;14.37;100.00;100506.94;5018758;28;20219;-66
2022/09/10 01:24:45;;;;;;;561.53;510.27;;;14.40;99.90;;;14.38;100.00;100510.47;5014308;28;20623;-66
2022/09/10 01:27:34;;;;;;;548.00;497.27;;;14.30;99.90;;;14.30;100.00;100512.25;5087194;28;20664;-66
2022/09/10 01:30:19;;;;;;;542.17;492.15;;;14.30;99.90;;;14.28;100.00;100524.69;5077824;28;20208;-65
2022/09/10 01:33:08;;;;;;;546.63;496.88;;;14.30;99.90;;;14.27;100.00;100534.44;5079585;27;20246;-65
2022/09/10 01:35:50;;;;;;;539.55;489.05;;;14.30;99.90;;;14.23;100.00;100530.03;5089553;28;20209;-66
2022/09/10 01:38:34;;;;;;;542.95;492.10;;;14.30;99.90;;;14.22;100.00;100538.91;5060982;28;20216;-65
2022/09/10 01:41:05;;;;;;;527.05;478.33;;;14.20;99.90;;;14.18;100.00;100544.22;5080519;28;20197;-65
2022/09/10 01:43:38;;;;;;;551.00;499.75;;;14.20;99.90;;;14.20;100.00;100553.97;5094242;28;20695;-65
2022/09/10 01:46:27;;;;;;;554.20;502.42;;;14.20;99.90;;;14.19;100.00;100551.31;5087740;27;20197;-65
2022/09/10 01:49:28;;;;;;;553.50;501.33;;;14.30;99.90;;;14.22;100.00;100565.50;5075574;27;20214;-65
2022/09/10 01:53:08;;;;;;;538.20;487.50;;;14.20;99.90;;;14.21;100.00;100562.84;5105124;27;20230;-65
2022/09/10 01:56:25;;;;;;;528.20;478.15;;;14.20;99.90;;;14.20;100.00;100569.03;5009558;28;20210;-65
2022/09/10 01:59:03;;;;;;;540.58;489.70;;;14.20;99.90;;;14.20;100.00;100561.06;5105326;27;20233;-66
2022/09/10 02:01:51;;;;;;;554.10;502.52;;;14.20;99.90;;;14.19;100.00;100567.28;5071233;28;20252;-66
2022/09/10 02:04:21;;;;;;;562.22;510.38;;;14.20;99.90;;;14.19;100.00;100568.16;5067411;28;20204;-65
2022/09/10 02:06:50;;;;;;;548.72;497.40;;;14.20;99.90;;;14.23;100.00;100566.38;5095274;28;20205;-65
2022/09/10 02:09:18;;;;;;;553.22;502.10;;;14.20;99.90;;;14.22;100.00;100564.59;5087366;28;20196;-66
2022/09/10 02:11:53;;;;;;;551.70;500.73;;;14.20;99.90;;;14.23;100.00;100567.25;5071515;28;20239;-65
2022/09/10 02:14:42;;;;;;;544.90;494.63;;;14.20;99.90;;;14.24;100.00;100570.81;5087984;28;20205;-65
2022/09/10 02:17:24;;;;;;;555.67;503.98;;;14.30;99.90;;;14.26;100.00;100569.91;5068336;28;20219;-66
2022/09/10 02:19:54;;;;;;;547.33;496.45;;;14.30;99.90;;;14.29;100.00;100582.31;5072130;27;20189;-65
2022/09/10 02:22:24;;;;;;;553.63;502.90;;;14.30;99.90;;;14.30;100.00;100581.41;5099571;27;20230;-65
2022/09/10 02:24:52;;;;;;;556.22;505.08;;;14.30;99.90;;;14.33;100.00;100578.78;5074924;27;20206;-65
2022/09/10 02:27:20;;;;;;;558.00;506.52;;;14.30;99.90;;;14.39;100.00;100578.75;5104871;27;20213;-66
2022/09/10 02:29:48;;;;;;;555.38;504.15;;;14.30;99.90;;;14.41;100.00;100585.84;5084629;27;20213;-65
2022/09/10 02:32:16;;;;;;;557.42;505.80;;;14.40;99.90;;;14.43;100.00;100588.53;5077004;27;20220;-65
2022/09/10 02:34:44;;;;;;;564.97;513.22;;;14.40;99.90;;;14.44;100.00;100579.66;5079719;27;20206;-66
2022/09/10 02:37:11;;;;;;;550.70;500.48;;;14.40;99.90;;;14.46;100.00;100580.53;5072843;28;20201;-65
2022/09/10 02:39:40;;;;;;;555.70;504.00;;;14.40;99.90;;;14.48;100.00;100589.41;5086395;28;20228;-65
2022/09/10 02:42:08;;;;;;;558.33;507.05;;;14.40;99.90;;;14.55;100.00;100582.25;5099169;28;20223;-66
2022/09/10 02:44:36;;;;;;;550.30;498.92;;;14.40;99.90;;;14.53;100.00;100578.72;5087662;27;20201;-66
2022/09/10 02:47:05;;;;;;;548.47;498.35;;;14.40;99.90;;;14.55;100.00;100574.28;5105390;27;20204;-65
2022/09/10 02:49:33;;;;;;;558.67;506.88;;;14.50;99.90;;;14.58;100.00;100576.94;5095351;28;20209;-65
2022/09/10 02:52:02;;;;;;;549.85;499.88;;;14.50;99.90;;;14.57;100.00;100576.03;5074841;28;20692;-65
2022/09/10 02:54:30;;;;;;;559.28;507.55;;;14.50;99.90;;;14.59;100.00;100568.06;5109597;27;20204;-65
2022/09/10 02:56:59;;;;;;;546.15;496.23;;;14.50;99.90;;;14.64;100.00;100566.25;5111415;27;20204;-65
2022/09/10 02:59:27;;;;;;;555.28;504.42;;;14.60;99.90;;;14.63;100.00;100567.13;5069277;28;20228;-65
2022/09/10 03:01:56;;;;;;;559.17;507.77;;;14.60;99.90;;;14.63;100.00;100560.03;5105286;27;20212;-66
2022/09/10 03:04:24;;;;;;;569.50;517.58;;;14.60;99.90;;;14.62;100.00;100560.94;5074654;28;20209;-65
2022/09/10 03:06:52;;;;;;;566.75;514.40;;;14.60;99.90;;;14.66;100.00;100562.69;5109893;27;20195;-65
2022/09/10 03:09:21;;;;;;;552.67;502.88;;;14.60;99.90;;;14.65;100.00;100557.38;5064137;28;20676;-65
2022/09/10 03:11:50;;;;;;;546.33;495.15;;;14.60;99.90;;;14.66;100.00;100564.47;5081895;27;20229;-66
2022/09/10 03:14:21;;;;;;;558.53;506.58;;;14.60;99.90;;;14.67;100.00;100563.56;5081633;27;20208;-66
2022/09/10 03:16:49;;;;;;;546.50;495.25;;;14.60;99.90;;;14.69;100.00;100565.34;5098366;27;20211;-65
2022/09/10 03:19:17;;;;;;;552.55;501.55;;;14.60;99.90;;;14.68;100.00;100558.25;5083351;28;20591;-66
2022/09/10 03:21:46;;;;;;;561.97;510.63;;;14.60;99.90;;;14.68;100.00;100563.56;5074102;28;20224;-66
2022/09/10 03:24:14;;;;;;;557.88;506.27;;;14.60;99.90;;;14.73;100.00;100569.75;5072377;28;20205;-66
2022/09/10 03:26:45;;;;;;;550.60;499.77;;;14.70;99.90;;;14.69;100.00;100568.00;5104414;27;20208;-65
2022/09/10 03:29:15;;;;;;;542.00;491.90;;;14.60;99.90;;;14.75;100.00;100574.19;5080718;28;20209;-66
2022/09/10 03:31:45;;;;;;;563.05;511.65;;;14.70;99.90;;;14.75;100.00;100571.50;5075992;28;20224;-66
2022/09/10 03:34:15;;;;;;;569.08;516.45;;;14.70;99.90;;;14.72;100.00;100569.75;5068043;27;20224;-66
2022/09/10 03:36:48;;;;;;;561.03;509.50;;;14.70;99.90;;;14.75;100.00;100567.06;5065451;28;20201;-65
2022/09/10 03:39:17;;;;;;;553.22;502.38;;;14.70;99.90;;;14.75;100.00;100568.84;5069248;28;20216;-65
2022/09/10 03:41:46;;;;;;;576.38;524.47;;;14.70;99.90;;;14.71;100.00;100568.88;5085949;28;20239;-65
2022/09/10 03:44:16;;;;;;;549.85;500.27;;;14.70;99.90;;;14.70;100.00;100569.75;5088535;28;20212;-66
2022/09/10 03:46:46;;;;;;;556.63;505.20;;;14.70;99.90;;;14.69;100.00;100573.31;5080830;27;20203;-65
2022/09/10 03:49:17;;;;;;;550.63;500.33;;;14.70;99.90;;;14.72;100.00;100583.94;5108813;28;20207;-66
2022/09/10 03:51:47;;;;;;;552.15;501.50;;;14.70;99.90;;;14.69;100.00;100577.75;5077016;28;20227;-66
2022/09/10 03:54:15;;;;;;;559.78;508.15;;;14.70;99.90;;;14.68;100.00;100579.53;5086753;28;20215;-65
2022/09/10 03:56:44;;;;;;;550.00;499.13;;;14.70;99.90;;;14.68;100.00;100584.84;5069986;28;20215;-66
2022/09/10 03:59:12;;;;;;;565.05;512.85;;;14.60;99.90;;;14.68;100.00;100584.84;5085518;28;20580;-66
2022/09/10 04:01:41;;;;;;;557.78;506.67;;;14.70;99.90;;;14.70;100.00;100590.16;5095156;28;20683;-66
2022/09/10 04:04:10;;;;;;;557.30;506.50;;;14.70;99.90;;;14.70;100.00;100584.84;5091327;28;20204;-66
2022/09/10 04:06:39;;;;;;;553.35;503.33;;;14.70;99.90;;;14.72;100.00;100593.72;5098752;27;20212;-65
2022/09/10 04:09:06;;;;;;;549.63;499.35;;;14.70;99.90;;;14.70;100.00;100590.16;5093851;28;20212;-66
2022/09/10 04:11:35;;;;;;;563.33;510.95;;;14.70;99.90;;;14.68;100.00;100579.53;5088526;27;20231;-66
2022/09/10 04:14:04;;;;;;;567.50;516.05;;;14.70;99.90;;;14.69;100.00;100586.63;5079318;27;20572;-65
2022/09/10 04:16:34;;;;;;;556.90;505.92;;;14.70;99.90;;;14.69;100.00;100583.09;5075807;27;20200;-66
2022/09/10 04:19:03;;;;;;;553.22;502.55;;;14.70;99.90;;;14.72;100.00;100591.06;5104263;27;20224;-66
2022/09/10 04:21:31;;;;;;;551.83;501.52;;;14.70;99.90;;;14.75;100.00;100595.47;5116699;27;20221;-66
2022/09/10 04:23:59;;;;;;;548.05;497.20;;;14.70;99.90;;;14.72;100.00;100588.38;5074097;27;20212;-64
2022/09/10 04:26:27;;;;;;;556.22;505.23;;;14.70;99.90;;;14.71;100.00;100584.84;5099429;27;20204;-65
2022/09/10 04:28:55;;;;;;;558.80;507.67;;;14.70;99.90;;;14.70;100.00;100590.16;5085266;27;20219;-65
2022/09/10 04:31:23;;;;;;;549.85;499.35;;;14.70;99.90;;;14.70;100.00;100590.16;5068093;27;20220;-65
2022/09/10 04:33:55;;;;;;;545.15;496.30;;;14.70;99.90;;;14.70;100.00;100593.72;5098019;27;20221;-65
2022/09/10 04:36:26;;;;;;;552.15;501.27;;;14.70;99.90;;;14.69;100.00;100601.72;5101123;27;20208;-66
2022/09/10 04:38:54;;;;;;;554.55;504.20;;;14.70;99.90;;;14.68;100.00;100607.94;5073888;27;21356;-65
2022/09/10 04:41:22;;;;;;;547.78;497.52;;;14.70;99.90;;;14.66;100.00;100613.25;5089638;28;20220;-66
2022/09/10 04:43:50;;;;;;;550.42;500.38;;;14.60;99.90;;;14.66;100.00;100617.69;5093640;27;20216;-65
2022/09/10 04:46:18;;;;;;;558.88;507.50;;;14.60;99.90;;;14.67;100.00;100609.72;5090566;28;20197;-66
2022/09/10 04:48:50;;;;;;;553.42;502.80;;;14.70;99.90;;;14.65;100.00;100605.28;5085647;28;20207;-65
2022/09/10 04:51:22;;;;;;;552.38;501.67;;;14.70;99.90;;;14.61;100.00;100612.41;5075822;28;20220;-66
2022/09/10 04:53:53;;;;;;;539.78;490.25;;;14.60;99.90;;;14.64;100.00;100614.16;5078533;27;20199;-65
2022/09/10 04:56:25;;;;;;;549.22;498.30;;;14.70;99.90;;;14.62;100.00;100618.59;5079813;27;20203;-66
2022/09/10 04:58:53;;;;;;;542.53;492.42;;;14.60;99.90;;;14.61;100.00;100630.16;5070322;28;20209;-66
2022/09/10 05:01:22;;;;;;;544.65;495.42;;;14.60;99.90;;;14.60;100.00;100623.06;5068331;28;20239;-65
2022/09/10 05:03:52;;;;;;;537.22;487.48;;;14.60;99.90;;;14.60;100.00;100626.59;5111820;27;20204;-65
2022/09/10 05:06:20;;;;;;;545.83;495.42;;;14.60;99.90;;;14.61;100.00;100627.47;5073145;27;20676;-64
2022/09/10 05:08:49;;;;;;;546.97;496.48;;;14.60;99.90;;;14.59;100.00;100632.81;5071493;28;20197;-65
2022/09/10 05:11:18;;;;;;;553.55;502.15;;;14.60;99.90;;;14.57;100.00;100629.28;5094166;27;20226;-64
2022/09/10 05:13:47;;;;;;;552.58;501.48;;;14.60;99.90;;;14.56;100.00;100624.84;5075265;28;20205;-65
2022/09/10 05:16:20;;;;;;;545.67;495.00;;;14.60;99.90;;;14.61;100.00;100636.34;5096173;27;20207;-65
2022/09/10 05:18:48;;;;;;;542.90;492.13;;;14.60;99.90;;;14.61;100.00;100638.13;5077382;27;20209;-64
2022/09/10 05:21:17;;;;;;;529.90;480.17;;;14.60;99.90;;;14.59;100.00;100629.25;5108614;27;20539;-65
2022/09/10 05:23:46;;;;;;;540.40;490.58;;;14.60;99.90;;;14.62;100.00;100631.91;5078687;27;20209;-65
2022/09/10 05:26:14;;;;;;;542.53;491.50;;;14.60;99.90;;;14.66;100.00;100631.91;5101973;27;20217;-65
2022/09/10 05:28:41;;;;;;;552.25;501.75;;;14.70;99.90;;;14.67;100.00;100636.31;5086837;28;20197;-65
2022/09/10 05:31:13;;;;;;;546.22;495.17;;;14.70;99.90;;;14.67;100.00;100633.66;5089142;28;20224;-65
2022/09/10 05:33:43;;;;;;;542.15;491.38;;;14.70;99.90;;;14.67;100.00;100631.00;5081019;27;20212;-64
2022/09/10 05:36:13;;;;;;;545.00;493.80;;;14.70;99.90;;;14.70;100.00;100630.09;5091261;27;20683;-65
2022/09/10 05:38:44;;;;;;;543.85;492.73;;;14.70;99.90;;;14.69;100.00;100628.34;5053602;28;20209;-65
2022/09/10 05:41:13;;;;;;;545.00;494.25;;;14.70;99.90;;;14.69;100.00;100628.34;5093648;28;20235;-65
2022/09/10 05:43:47;;;;;;;541.13;490.13;;;14.70;99.90;;;14.70;100.00;100633.66;5100033;27;20215;-64
2022/09/10 05:46:15;;;;;;;544.13;493.25;;;14.70;99.90;;;14.73;100.00;100630.97;5067866;28;20295;-64
2022/09/10 05:48:47;;;;;;;530.72;480.77;;;14.70;99.90;;;14.76;100.00;100639.84;5102652;27;20220;-66
2022/09/10 05:51:17;;;;;;;547.38;494.75;;;14.70;99.90;;;14.77;100.00;100634.50;5071316;28;20216;-65
2022/09/10 05:53:47;;;;;;;531.05;481.67;;;14.70;99.90;;;14.77;100.00;100621.19;5073467;28;20219;-66
2022/09/10 05:56:16;;;;;;;540.30;489.25;;;14.70;99.90;;;14.79;100.00;100624.72;5106860;27;20350;-66
2022/09/10 05:58:44;;;;;;;550.00;498.85;;;14.80;99.90;;;14.80;100.00;100631.81;5054744;27;20205;-65
2022/09/10 06:01:14;;;;;;;539.65;489.48;;;14.80;99.90;;;14.83;100.00;100629.16;5095378;28;20235;-66
2022/09/10 06:03:43;;;;;;;546.78;496.13;;;14.80;99.90;;;14.83;100.00;100629.16;5106852;27;20212;-66
2022/09/10 06:06:11;;;;;;;551.45;500.38;;;14.80;99.90;;;14.83;100.00;100623.81;5054830;28;20196;-65
2022/09/10 06:08:49;;;;;;;547.38;497.70;;;14.80;99.90;;;14.87;100.00;100630.91;5087685;28;20528;-65
2022/09/10 06:11:24;;;;;;;543.70;492.77;;;14.80;99.90;;;14.89;100.00;100636.22;5072773;28;20224;-66
2022/09/10 06:13:52;;;;;;;558.85;506.75;;;14.80;99.90;;;14.87;100.00;100640.66;5051985;27;20228;-66
2022/09/10 06:16:20;;;;;;;548.03;497.50;;;14.80;99.90;;;14.89;100.00;100639.75;5075356;28;20559;-66
2022/09/10 06:18:49;;;;;;;549.55;498.88;;;14.90;99.90;;;14.89;100.00;100636.22;5072579;28;20211;-66
2022/09/10 06:21:23;;;;;;;545.00;494.02;;;14.90;99.90;;;14.92;100.00;100657.50;5092480;28;20229;-66
2022/09/10 06:23:56;;;;;;;556.50;505.50;;;14.90;99.90;;;14.95;100.00;100647.72;5068045;28;20220;-65
2022/09/10 06:26:26;;;;;;;555.83;503.95;;;14.90;99.90;;;14.98;100.00;100652.16;5081538;27;20196;-66
2022/09/10 06:28:57;;;;;;;555.40;503.58;;;15.00;99.90;;;14.98;100.00;100649.47;5059372;27;20212;-66
2022/09/10 06:31:26;;;;;;;556.95;505.55;;;14.90;99.90;;;15.02;100.00;100659.22;5091643;27;20251;-66
2022/09/10 06:33:55;;;;;;;547.95;497.58;;;15.00;99.90;;;15.04;100.00;100657.44;5079364;28;20236;-66
2022/09/10 06:36:27;;;;;;;548.88;498.40;;;15.00;99.90;;;15.10;100.00;100661.84;5077308;27;20196;-66
2022/09/10 06:38:56;;;;;;;550.42;500.25;;;15.00;99.90;;;15.15;100.00;100662.69;5102753;27;20215;-66
2022/09/10 06:41:25;;;;;;;559.65;509.13;;;15.80;99.90;;;15.18;100.00;100663.56;5087288;28;20684;-66
2022/09/10 06:44:13;;;;;;;566.63;515.78;;;15.10;99.90;;;15.23;100.00;100663.53;5069761;28;20205;-66
2022/09/10 06:46:48;;;;;;;561.08;510.13;;;15.20;99.90;;;15.23;100.00;100656.44;5106486;27;20223;-65
2022/09/10 06:49:36;;;;;;;553.63;502.92;;;15.10;99.90;;;15.30;100.00;100662.59;5101033;28;20197;-66
2022/09/10 06:52:05;;;;;;;568.10;517.20;;;15.20;99.90;;;15.33;100.00;100665.25;5080744;27;20236;-66
2022/09/10 06:54:34;;;;;;;569.17;518.28;;;15.20;99.90;;;15.29;100.00;100663.50;5094083;27;20215;-65
2022/09/10 06:57:16;;;;;;;571.38;520.42;;;15.20;99.90;;;15.33;100.00;100659.91;5090718;27;20211;-65
2022/09/10 06:59:44;;;;;;;578.92;527.33;;;15.20;99.90;;;15.36;100.00;100665.22;5108739;27;20209;-66
2022/09/10 07:02:14;;;;;;;578.90;528.30;;;15.30;99.90;;;15.38;100.00;100669.66;5080323;28;20224;-66
2022/09/10 07:04:42;;;;;;;585.85;534.25;;;15.30;99.90;;;15.40;100.00;100666.09;5081846;28;20197;-66
2022/09/10 07:07:10;;;;;;;582.40;531.03;;;15.30;99.90;;;15.38;100.00;100667.00;5092994;28;20197;-67
2022/09/10 07:09:38;;;;;;;584.47;533.65;;;15.30;99.90;;;15.41;100.00;100658.09;5059809;28;20204;-66
2022/09/10 07:12:08;;;;;;;584.05;532.72;;;15.30;99.90;;;15.43;100.00;100658.06;5074850;27;20228;-65
2022/09/10 07:14:39;;;;;;;582.75;531.00;;;15.30;99.90;;;15.41;100.00;100655.41;5079331;28;20606;-67
2022/09/10 07:17:10;;;;;;;572.72;522.50;;;15.30;99.90;;;15.38;100.00;100658.09;5059760;27;20211;-66
2022/09/10 07:19:38;;;;;;;584.92;533.53;;;15.30;99.90;;;15.37;100.00;100664.34;5100962;27;20226;-66
2022/09/10 07:22:17;;;;;;;574.75;524.78;;;15.30;99.90;;;15.41;100.00;100667.88;5065474;27;20601;-65
2022/09/10 07:24:49;;;;;;;582.83;532.53;;;15.30;99.90;;;15.43;100.00;100663.41;5103572;27;20204;-65
2022/09/10 07:27:28;;;;;;;576.72;525.95;;;15.30;99.90;;;15.51;100.00;100677.56;5074098;28;20209;-65
2022/09/10 07:29:57;;;;;;;593.60;541.35;;;15.40;99.90;;;15.51;100.00;100674.91;5072819;28;20292;-66
2022/09/10 07:32:25;;;;;;;581.92;532.00;;;;;;;15.52;100.00;100677.56;5069032;28;20225;-65
2022/09/10 07:35:06;;;;;;;595.17;543.20;;;15.40;99.90;;;15.57;100.00;100672.19;5090299;27;20219;-66
2022/09/10 07:37:35;;;;;;;599.10;544.85;;;15.50;99.90;;;15.62;100.00;100678.44;5043426;28;20205;-65
2022/09/10 07:40:03;;;;;;;594.47;542.22;;;15.50;99.90;;;15.70;100.00;100670.38;5071064;28;20215;-66
2022/09/10 07:42:31;;;;;;;589.72;538.13;;;15.60;99.90;;;15.73;100.00;100676.56;5084628;28;20229;-66
2022/09/10 07:45:00;;;;;;;596.33;544.88;;;15.60;99.90;;;15.80;100.00;100672.94;5092386;28;20212;-65
2022/09/10 07:47:28;;;;;;;599.13;547.33;;;15.60;99.90;;;15.88;100.00;100672.88;5077155;28;20217;-66
2022/09/10 07:49:56;;;;;;;602.17;550.80;;;15.70;99.90;;;15.91;100.00;100665.75;5085571;28;20200;-66
2022/09/10 07:52:24;;;;;;;611.65;559.60;;;15.10;99.90;;;15.94;100.00;100659.50;5087095;28;20238;-66
2022/09/10 07:54:55;;;;;;;618.22;564.10;;;15.80;99.90;;;15.97;100.00;100663.00;5074757;28;20558;-65
2022/09/10 07:57:22;;;;;;;606.85;555.53;;;15.80;99.90;;;15.97;100.00;100665.69;5086567;28;20204;-65
2022/09/10 07:59:52;;;;;;;621.33;569.03;;;15.80;99.90;;;16.02;100.00;100659.41;5070144;28;20209;-65
2022/09/10 08:02:24;;;;;;;612.13;560.28;;;15.90;99.90;;;16.09;100.00;100670.00;5104895;27;20239;-65
2022/09/10 08:04:58;;;;;;;615.75;563.25;;;15.90;99.90;;;16.15;100.00;100661.94;5070228;28;20219;-67
2022/09/10 08:07:27;;;;;;;620.45;567.45;;;16.00;99.90;;;16.21;100.00;100661.00;5104109;28;20200;-66
2022/09/10 08:09:56;;;;;;;621.85;569.47;;;16.00;99.90;;;16.30;100.00;100668.91;5072140;28;20196;-65
2022/09/10 08:12:24;;;;;;;633.92;580.72;;;16.10;99.90;;;16.40;100.00;100659.00;5112035;28;20231;-65
2022/09/10 08:14:53;;;;;;;628.63;576.58;;;16.20;99.90;;;16.47;100.00;100655.38;5071752;28;20660;-67
2022/09/10 08:17:21;;;;;;;631.42;578.83;;;16.30;99.90;;;16.60;100.00;100657.00;5068657;28;20212;-66
2022/09/10 08:19:52;;;;;;;642.38;589.60;;;16.40;99.90;;;16.76;100.00;100668.41;5064636;28;20201;-66
2022/09/10 08:22:21;;;;;;;639.30;588.13;;;16.50;99.90;;;16.84;100.00;100654.06;5090897;28;20240;-66
2022/09/10 08:24:55;;;;;;;649.03;595.45;;;16.60;99.90;;;17.02;100.00;100655.63;5069231;28;20204;-67
2022/09/10 08:27:28;;;;;;;647.05;595.80;;;16.80;99.90;;;17.00;100.00;100653.88;5072886;28;20209;-66
2022/09/10 08:29:56;;;;;;;660.50;607.25;;;16.80;99.90;;;17.00;100.00;100653.88;5065944;28;20193;-66
2022/09/10 08:32:27;;;;;;;663.75;610.42;;;16.90;99.90;;;16.98;100.00;100653.03;5058550;28;20697;-65
2022/09/10 08:34:56;;;;;;;675.33;619.15;;;16.80;99.90;;;16.93;100.00;100647.75;5074304;28;20227;-66
2022/09/10 08:37:26;;;;;;;672.00;617.83;;;16.80;99.90;;;16.93;100.00;100642.41;5075331;28;20201;-66
2022/09/10 08:39:54;;;;;;;675.97;621.20;;;16.90;99.90;;;16.94;100.00;100652.19;5059240;28;20212;-68
2022/09/10 08:42:41;;;;;;;693.25;636.08;;;16.90;99.90;;;16.88;100.00;100638.88;5068320;28;20225;-66
2022/09/10 08:45:27;;;;;;;665.88;612.65;;;16.80;99.90;;;16.81;100.00;100640.75;5087755;28;20205;-65
2022/09/10 08:48:15;;;;;;;674.10;619.55;;;16.80;99.90;;;16.81;100.00;100631.84;5081641;28;20208;-66
2022/09/10 08:51:12;;;;;;;679.38;625.25;;;18.20;99.90;;;16.85;100.00;100634.44;5066830;28;20647;-66
2022/09/10 08:54:16;;;;;;;668.08;615.20;;;16.80;99.90;;;16.95;100.00;100660.16;5070454;28;20197;-65
2022/09/10 08:56:47;;;;;;;668.38;615.75;;;16.80;99.90;;;17.04;100.00;100644.91;5053157;28;20216;-66
2022/09/10 08:59:43;;;;;;;693.33;637.63;;;16.90;99.90;;;17.12;100.00;100651.91;5051317;28;20208;-66
2022/09/10 09:02:26;;;;;;;679.55;626.35;;;17.00;99.90;;;17.20;100.00;100657.16;5104537;27;20239;-65
2022/09/10 09:05:22;;;;;;;678.78;625.13;;;17.10;99.90;;;17.18;100.00;100640.25;5081921;27;20205;-66
2022/09/10 09:07:57;;;;;;;697.40;642.47;;;17.10;99.90;;;17.34;100.00;100643.59;5091481;27;20193;-65
2022/09/10 09:11:09;;;;;;;686.38;634.10;;;17.20;99.90;;;17.38;100.00;100645.31;5095161;27;20207;-65
2022/09/10 09:14:10;;;;;;;696.90;642.78;;;17.30;99.90;;;17.47;100.00;100650.50;5075640;28;20209;-65
2022/09/10 09:17:05;;;;;;;696.03;641.88;;;17.40;99.90;;;17.53;100.00;100650.41;5087740;27;20224;-66
2022/09/10 09:20:04;;;;;;;715.03;659.22;;;17.40;99.90;;;17.58;100.00;100657.44;5058810;28;20216;-65
2022/09/10 09:22:51;;;;;;;704.88;650.45;;;17.50;99.90;;;17.53;100.00;100648.63;5060079;27;20240;-66
2022/09/10 09:25:52;;;;;;;706.80;652.92;;;17.50;99.90;;;17.51;100.00;100645.09;5086169;28;20204;-66
2022/09/10 09:28:38;;;;;;;701.28;648.03;;;17.50;99.90;;;17.53;100.00;100645.06;5091911;28;20201;-65
2022/09/10 09:31:24;;;;;;;706.50;652.92;;;17.50;99.90;;;17.54;100.00;100647.72;5062896;28;20580;-67
2022/09/10 09:34:12;;;;;;;720.13;665.55;;;17.50;99.90;;;17.53;100.00;100635.25;5090482;27;20223;-66
2022/09/10 09:36:47;;;;;;;721.28;666.60;;;17.50;99.90;;;17.49;100.00;100619.28;5082998;28;20228;-66
2022/09/10 09:39:36;;;;;;;721.42;667.10;;;17.50;99.90;;;17.54;100.00;100628.09;5083814;28;20201;-65
2022/09/10 09:42:36;;;;;;;720.95;665.90;;;17.50;99.90;;;17.70;100.00;100642.13;5060837;28;20224;-67
2022/09/10 09:45:19;;;;;;;720.63;666.53;;;17.60;99.90;;;17.80;100.00;100657.13;5090646;28;20680;-67
2022/09/10 09:47:53;;;;;;;724.92;670.08;;;17.70;99.90;;;17.84;100.00;100642.78;5083527;28;20204;-65
2022/09/10 09:50:21;;;;;;;733.47;678.45;;;18.30;99.90;;;17.90;100.00;100634.66;5088369;28;20551;-66
2022/09/10 09:52:55;;;;;;;733.15;678.75;;;17.80;99.90;;;17.96;100.00;100647.91;5102007;27;20220;-66
2022/09/10 09:55:39;;;;;;;742.05;687.25;;;17.90;99.90;;;17.99;100.00;100645.19;5073774;28;20212;-66
2022/09/10 09:58:27;;;;;;;743.08;687.72;;;18.00;99.90;;;18.00;100.00;100633.56;5101971;28;20204;-66
2022/09/10 10:01:04;;;;;;;747.33;691.55;;;18.00;99.90;;;17.90;100.00;100618.59;5068925;28;20290;-65
2022/09/10 10:03:51;;;;;;;755.88;700.08;;;18.00;99.90;;;17.95;100.00;100616.72;5078746;27;20228;-66
2022/09/10 10:06:26;;;;;;;781.40;718.85;;;18.00;99.90;;;18.05;100.00;100628.13;5099481;27;20193;-66
2022/09/10 10:08:57;;;;;;;748.58;693.15;;;18.00;99.90;;;18.02;100.00;100601.44;5089098;28;20196;-67
2022/09/10 10:11:54;;;;;;;748.88;694.30;;;18.00;99.90;;;17.90;100.00;100579.34;5062506;28;20224;-66